Latest Weather Observations for Shay Gap

IDW60801

Issued at 11:32 am WST Sunday 14 February 2016 (issued every 30 minutes, with the page automatically refreshed every 10 minutes)

About weather observations | Map of weather stations | Latest weather observations for WA | Other Formats
Station Details ID: 504045 Name: SHAY GAP Lat: -20.43 Lon: 120.13 Height: 173.83 m
Data from the previous 72 hours. | See also: Recent months for locations in Western Australia
Date/Time
WST
Temp
°C
App
Temp
°C
Dew
Point
Rel
Hum
%
Delta-T
°C
Wind Press
QNH
hPa
Press
MSL
hPa
Rain
since 9 am
mm
Dir
 
Spd
km/h
Gust
km/h
Spd
kts
Gust
kts
14/11:30am 38.0 38.9 18.4 31 13.0 NW 11 20 6 11 1010.0 1008.6 0.0
14/11:00am 36.5 37.7 19.0 35 11.6 WSW 11 17 6 9 1010.3 1008.9 0.0
14/10:30am 35.3 36.7 19.6 39 10.5 SW 11 17 6 9 1010.9 1009.4 0.0
14/10:00am 34.1 36.3 21.2 47 8.8 SW 11 17 6 9 1011.1 1009.6 0.0
14/09:30am 33.4 35.5 22.5 52 7.5 W 15 22 8 12 1010.5 1009.1 0.0
14/09:00am 32.0 34.8 23.0 59 6.2 WNW 13 19 7 10 1010.8 1009.3 0.0
14/08:30am 31.3 34.1 23.7 64 5.3 WNW 15 22 8 12 1010.8 1009.3 0.0
14/08:00am 29.6 33.1 24.2 73 3.8 NW 13 17 7 9 1010.9 1009.4 0.0
14/07:30am 28.5 31.9 24.7 80 2.7 WNW 15 20 8 11 1010.9 1009.4 0.0
14/07:00am 27.3 30.5 24.9 87 1.7 WNW 17 20 9 11 1010.4 1009.0 0.0
14/06:30am 26.2 31.1 25.2 94 0.7 NW 9 13 5 7 1010.2 1008.8 0.0
14/06:00am 25.8 30.6 25.1 96 0.5 NW 9 13 5 7 1009.7 1008.3 0.0
14/05:30am 26.0 31.2 25.1 95 0.6 NW 7 9 4 5 1009.2 1007.8 0.0
14/05:00am 26.1 30.9 25.1 94 0.7 NW 9 11 5 6 1008.9 1007.5 0.0
14/04:30am 26.2 31.3 25.0 93 0.8 WNW 7 9 4 5 1008.7 1007.2 0.0
14/04:00am 26.3 31.0 24.9 92 1.0 NW 9 11 5 6 1008.6 1007.1 0.0
14/03:30am 26.6 31.7 25.0 91 1.1 NW 7 9 4 5 1008.7 1007.2 0.0
14/03:00am 26.6 31.3 25.0 91 1.1 NW 9 11 5 6 1008.5 1007.0 0.0
14/02:30am 26.7 31.8 24.9 90 1.3 NW 7 11 4 6 1008.7 1007.2 0.0
14/02:00am 26.9 31.2 24.9 89 1.4 NW 11 13 6 7 1008.7 1007.2 0.0
14/01:30am 27.0 31.0 25.0 89 1.4 NW 13 17 7 9 1008.9 1007.5 0.0
14/01:00am 26.9 30.8 24.9 89 1.4 NNW 13 17 7 9 1009.2 1007.8 0.0
14/12:30am 27.2 30.9 24.5 85 1.9 N 13 17 7 9 1009.6 1008.2 0.0
14/12:00am 28.1 32.3 24.1 79 2.8 WNW 9 15 5 8 1009.4 1008.0 0.0
 
Date/Time
WST
Temp
°C
App
Temp
°C
Dew
Point
Rel
Hum
%
Delta-T
°C
Wind Press
QNH
hPa
Press
MSL
hPa
Rain
since 9 am
mm
Dir
 
Spd
km/h
Gust
km/h
Spd
kts
Gust
kts
13/11:30pm 28.4 31.9 23.5 75 3.4 WNW 11 15 6 8 1009.4 1008.0 0.0
13/11:00pm 28.8 31.2 23.0 71 4.0 WNW 15 19 8 10 1009.6 1008.2 0.0
13/10:30pm 29.5 32.5 22.7 67 4.7 NW 11 15 6 8 1009.8 1008.4 0.0
13/10:00pm 29.9 33.1 23.1 67 4.7 WNW 11 17 6 9 1009.6 1008.2 0.0
13/09:30pm 29.9 33.3 24.1 71 4.1 NW 13 17 7 9 1009.6 1008.2 0.0
13/09:00pm 30.2 33.8 24.4 71 4.1 NW 13 20 7 11 1009.6 1008.2 0.0
13/08:30pm 30.6 32.8 24.0 68 4.6 NW 19 26 10 14 1009.4 1008.0 0.0
13/08:00pm 31.4 32.2 21.3 55 6.8 NNW 19 26 10 14 1009.3 1007.9 0.0
13/07:30pm 32.4 31.3 18.6 44 9.0 NNW 22 32 12 17 1009.0 1007.6 0.0
13/07:00pm 32.9 31.5 17.9 41 9.7 NW 22 28 12 15 1008.6 1007.1 0.0
13/06:30pm 34.2 31.8 17.4 36 10.9 NNW 26 32 14 17 1008.0 1006.5 0.0
13/06:00pm 35.4 32.7 15.7 31 12.5 NNW 24 32 13 17 1007.7 1006.2 0.0
13/05:30pm 35.8 34.4 17.9 34 11.7 NNW 22 30 12 16 1007.5 1006.0 0.0
13/05:00pm 36.6 36.5 20.0 38 11.2 NW 20 30 11 16 1007.6 1006.1 0.0
13/04:30pm 37.4 36.1 19.8 35 11.8 NNW 26 35 14 19 1007.5 1006.0 0.0
13/04:00pm 38.3 36.4 20.1 34 12.3 NNW 30 43 16 23 1007.6 1006.1 0.0
13/03:30pm 39.5 38.8 20.2 32 13.1 NNW 24 35 13 19 1007.5 1006.0 0.0
13/03:00pm 39.5 39.1 20.2 32 13.1 NNW 22 32 12 17 1007.7 1006.2 0.0
13/02:30pm 39.1 38.8 20.4 34 12.7 NNW 22 37 12 20 1007.8 1006.3 0.0
13/02:00pm 39.0 39.1 21.2 35 12.3 NNW 22 32 12 17 1008.0 1006.5 0.0
13/01:30pm 39.9 40.1 20.6 33 13.2 NNW 20 30 11 16 1008.2 1006.7 0.0
13/01:00pm 40.1 40.1 19.7 30 13.8 NW 19 28 10 15 1008.4 1006.9 0.0
13/12:30pm 39.8 40.4 19.5 31 13.7 NW 15 24 8 13 1008.6 1007.1 0.0
13/12:00pm 39.1 38.9 19.4 31 13.3 NNW 19 35 10 19 1008.9 1007.5 0.0
13/11:30am 38.3 40.0 21.0 36 11.8 WNW 13 28 7 15 1009.2 1007.8 0.0
13/11:00am 37.4 38.4 21.1 38 11.2 WNW 17 26 9 14 1009.6 1008.2 0.0
13/10:30am 35.9 36.3 19.8 39 10.8 NW 17 26 9 14 1009.9 1008.5 0.0
13/10:00am 35.4 37.7 22.7 47 8.8 NNW 15 24 8 13 1010.2 1008.8 0.0
13/09:30am 34.8 36.2 22.5 48 8.5 NNW 19 26 10 14 1010.5 1009.1 0.0
13/09:00am 33.3 35.3 23.0 54 7.2 NNW 17 28 9 15 1010.4 1009.0 0.0
13/08:30am 31.8 34.3 24.7 66 5.0 NNW 20 28 11 15 1010.5 1009.1 0.0
13/08:00am 30.6 33.3 25.0 72 4.0 NNW 20 30 11 16 1010.5 1009.1 0.0
13/07:30am 29.3 32.5 25.5 80 2.7 NNW 19 26 10 14 1010.3 1008.9 0.0
13/07:00am - - - - - NNW 19 26 10 14 1010.3 1008.9 0.0
13/06:30am - - - - - N 15 19 8 10 1010.0 1008.6 0.0
13/06:00am - - - - - NNE 17 24 9 13 1009.7 1008.3 0.0
13/05:30am - - - - - N 19 26 10 14 1009.2 1007.8 0.0
13/05:00am - - - - - N 15 20 8 11 1008.8 1007.4 0.0
13/04:30am - - - - - N 15 19 8 10 1008.9 1007.5 0.0
13/04:00am - - - - - NNW 17 22 9 12 1008.8 1007.4 0.0
13/03:30am - - - - - NNW 15 19 8 10 1008.4 1006.9 0.0
13/03:00am - - - - - NNW 17 20 9 11 1008.1 1006.6 0.0
13/02:30am - - - - - NNW 11 15 6 8 1008.3 1006.8 0.0
13/02:00am - - - - - N 15 24 8 13 1008.8 1007.4 0.0
13/01:30am - - - - - NNW 15 24 8 13 1008.8 1007.4 0.0
13/01:00am - - - - - WSW 17 20 9 11 1008.2 1006.7 0.0
13/12:30am - - - - - WSW 20 30 11 16 1008.4 1006.9 0.0
13/12:00am - - - - - WSW 20 24 11 13 1008.2 1006.7 0.0
 
Date/Time
WST
Temp
°C
App
Temp
°C
Dew
Point
Rel
Hum
%
Delta-T
°C
Wind Press
QNH
hPa
Press
MSL
hPa
Rain
since 9 am
mm
Dir
 
Spd
km/h
Gust
km/h
Spd
kts
Gust
kts
12/11:30pm - - - - - WSW 13 19 7 10 1008.5 1007.0 0.0
12/11:00pm - - - - - WNW 13 17 7 9 1008.7 1007.2 0.0
12/10:30pm - - - - - WNW 17 22 9 12 1008.7 1007.2 0.0
12/10:00pm - - - - - WNW 15 20 8 11 1008.6 1007.1 0.0
12/09:30pm - - - - - WNW 9 11 5 6 1008.7 1007.2 0.0
12/09:00pm - - - - - WNW 13 17 7 9 1008.3 1006.8 0.0
12/08:30pm - - - - - NW 9 13 5 7 1008.2 1006.7 0.0
12/08:00pm - - - - - WNW 13 17 7 9 1008.0 1006.5 0.0
12/07:30pm - - - - - NW 13 17 7 9 1007.6 1006.1 0.0
12/07:00pm - - - - - NNW 13 17 7 9 1007.2 1005.7 0.0
12/06:30pm - - - - - NNW 20 28 11 15 1006.5 1005.0 0.0
12/06:00pm - - - - - NNW 22 30 12 16 1006.1 1004.6 0.0
12/05:30pm - - - - - NNW 26 33 14 18 1005.9 1004.4 0.0
12/05:00pm - - - - - NNW 26 35 14 19 1005.6 1004.1 0.0
12/04:30pm - - - - - NW 22 33 12 18 1005.4 1003.9 0.0
12/04:00pm - - - - - NNW 32 39 17 21 1005.5 1004.0 0.0
12/03:30pm - - - - - NNW 9 24 5 13 1005.5 1004.0 0.0
12/03:00pm - - - - - NE 17 28 9 15 1005.5 1004.0 0.0
12/02:30pm - - - - - N 7 13 4 7 1005.8 1004.3 0.0
12/02:00pm - - - - - E 22 35 12 19 1006.2 1004.7 0.0
12/01:45pm - - - - - ENE 26 46 14 25 1006.3 1004.8 0.0
12/01:30pm - - - - - ESE 19 32 10 17 1006.5 1005.0 0.0
12/01:00pm - - - - - ESE 20 39 11 21 1006.9 1005.4 0.0
12/12:30pm - - - - - ESE 19 32 10 17 1007.4 1005.9 0.0
12/12:00pm - - - - - SE 20 32 11 17 1007.9 1006.4 0.0
12/11:30am - - - - - NE 13 22 7 12 1008.3 1006.8 0.0
12/11:00am - - - - - ENE 15 24 8 13 1008.6 1007.1 0.0
12/10:30am - - - - - SE 11 19 6 10 1008.9 1007.5 0.0
12/10:00am - - - - - SE 19 24 10 13 1009.1 1007.7 0.0
12/09:30am - - - - - ESE 20 26 11 14 1009.3 1007.9 0.0
12/09:00am - - - - - SE 22 28 12 15 1009.4 1008.0 0.0
12/08:30am 37.4 32.0 6.4 15 17.3 SE 24 32 13 17 1009.5 1008.1 0.0
12/08:00am - - - - - ESE 26 32 14 17 1009.3 1007.9 0.0
12/07:30am - - - - - SSE 17 24 9 13 1009.4 1008.0 0.0
12/07:00am - - - - - SSE 15 20 8 11 1009.3 1007.9 0.0
12/06:30am - - - - - SSE 20 26 11 14 1009.1 1007.7 0.0
12/06:00am - - - - - SSE 17 20 9 11 1008.9 1007.5 0.0
12/05:30am - - - - - SSE 15 17 8 9 1008.7 1007.2 0.0
12/05:00am - - - - - SSE 17 20 9 11 1008.4 1006.9 0.0
12/04:30am - - - - - SSE 17 19 9 10 1008.1 1006.6 0.0
12/04:00am - - - - - SSE 13 13 7 7 1008.0 1006.5 0.0
12/03:30am - - - - - S 7 9 4 5 1007.8 1006.3 0.0
12/03:00am - - - - - SSW 13 17 7 9 1007.7 1006.2 0.0
12/02:30am - - - - - S 11 15 6 8 1007.9 1006.4 0.0
12/02:00am - - - - - SSW 11 15 6 8 1008.0 1006.5 0.0
12/01:30am - - - - - SSW 11 13 6 7 1008.3 1006.8 0.0
12/01:00am - - - - - SW 17 19 9 10 1008.4 1006.9 0.0
12/12:30am - - - - - SW 15 17 8 9 1008.7 1007.2 0.0
12/12:00am - - - - - SSW 15 17 8 9 1008.9 1007.5 0.0
 
Date/Time
WST
Temp
°C
App
Temp
°C
Dew
Point
Rel
Hum
%
Delta-T
°C
Wind Press
QNH
hPa
Press
MSL
hPa
Rain
since 9 am
mm
Dir
 
Spd
km/h
Gust
km/h
Spd
kts
Gust
kts
11/11:30pm - - - - - SW 13 17 7 9 1009.0 1007.6 0.0
11/11:00pm - - - - - WSW 15 20 8 11 1009.1 1007.7 0.0
11/10:30pm - - - - - WSW 15 17 8 9 1009.2 1007.8 0.0
11/10:00pm - - - - - WSW 15 15 8 8 1009.1 1007.7 0.0
11/09:30pm - - - - - W 17 17 9 9 1008.9 1007.5 0.0
11/09:00pm - - - - - WSW 11 15 6 8 1008.7 1007.2 0.0
11/08:30pm - - - - - WNW 13 15 7 8 1008.4 1006.9 0.0
11/08:00pm - - - - - NW 11 15 6 8 1008.2 1006.7 0.0
11/07:30pm - - - - - NNW 11 15 6 8 1007.9 1006.4 0.0
11/07:00pm - - - - - NW 15 19 8 10 1007.2 1005.7 0.0
11/06:30pm - - - - - WNW 15 26 8 14 1006.8 1005.3 0.0
11/06:00pm 43.1 38.4 3.4 9 21.8 SE 17 24 9 13 1006.3 1004.8 0.0
11/05:30pm 43.1 40.0 3.4 9 21.8 E 9 11 5 6 1006.0 1004.5 0.0
11/05:00pm 44.3 39.8 4.3 9 22.4 SE 17 30 9 16 1005.7 1004.2 0.0
11/04:30pm 44.1 38.3 4.2 9 22.2 ESE 24 37 13 20 1005.5 1004.0 0.0
11/04:23pm 44.7 39.3 4.6 9 22.5 SE 22 37 12 20 1005.4 1003.9 0.0
11/04:00pm 44.1 39.6 4.2 9 22.3 SE 17 32 9 17 1005.6 1004.1 0.0
11/03:30pm 44.2 40.8 4.2 9 22.3 ESE 11 20 6 11 1005.7 1004.2 0.0
11/03:00pm 44.8 39.4 4.7 9 22.6 ENE 22 39 12 21 1005.8 1004.3 0.0
11/02:30pm 44.0 38.1 4.1 9 22.2 E 24 35 13 19 1006.3 1004.8 0.0
11/02:00pm 44.0 38.1 4.1 9 22.2 E 24 50 13 27 1006.6 1005.1 0.0
11/01:30pm 43.3 40.5 5.1 10 21.5 SSE 9 22 5 12 1006.9 1005.4 0.0
11/01:00pm 44.8 40.4 4.7 9 22.6 SSE 17 32 9 17 1007.4 1005.9 0.0
11/12:30pm 44.0 38.1 4.1 9 22.2 ESE 24 35 13 19 1007.9 1006.4 0.0
11/12:00pm 42.6 37.6 4.6 10 21.2 ESE 20 30 11 16 1008.2 1006.7 0.0

Other Formats:

Comma delimited format used in spreadsheet applications
http://www.bom.gov.au/fwo/IDW60801/IDW60801.99311.axf

JavaScript Object Notation format (JSON) in row-major order
http://www.bom.gov.au/fwo/IDW60801/IDW60801.99311.json